createdAt,value
2022-11-14T00:01:12.748Z,23.05
2022-11-14T00:03:39.636Z,22.90
2022-11-14T00:06:07.519Z,22.00
2022-11-14T00:08:35.018Z,22.77
2022-11-14T00:11:02.008Z,17.23
2022-11-14T00:13:29.107Z,22.35
2022-11-14T00:15:55.947Z,24.08
2022-11-14T00:18:23.089Z,24.20
2022-11-14T00:20:51.626Z,19.42
2022-11-14T00:23:19.063Z,24.13
2022-11-14T00:25:46.379Z,24.05
2022-11-14T00:28:14.146Z,24.17
2022-11-14T00:30:40.992Z,26.10
2022-11-14T00:33:07.907Z,26.80
2022-11-14T00:35:34.746Z,25.00
2022-11-14T00:38:01.501Z,27.00
2022-11-14T00:40:28.281Z,27.02
2022-11-14T00:42:55.033Z,27.90
2022-11-14T00:45:21.832Z,27.63
2022-11-14T00:47:48.738Z,30.50
2022-11-14T00:50:18.973Z,29.77
2022-11-14T00:52:45.844Z,27.60
2022-11-14T00:55:12.683Z,27.25
2022-11-14T00:57:39.595Z,28.75
2022-11-14T01:00:08.183Z,29.83
2022-11-14T01:02:34.952Z,29.92
2022-11-14T01:05:02.403Z,32.78
2022-11-14T01:07:29.232Z,31.50
2022-11-14T01:09:56.178Z,32.47
2022-11-14T01:12:23.132Z,31.75
2022-11-14T01:14:49.983Z,31.42
2022-11-14T01:17:16.809Z,29.17
2022-11-14T01:19:43.684Z,30.80
2022-11-14T01:22:10.484Z,32.47
2022-11-14T01:24:37.356Z,33.65
2022-11-14T01:27:04.399Z,32.97
2022-11-14T01:29:31.217Z,32.08
2022-11-14T01:31:58.141Z,33.88
2022-11-14T01:34:25.125Z,32.53
2022-11-14T01:36:52.275Z,34.78
2022-11-14T01:39:19.092Z,34.92
2022-11-14T01:41:45.987Z,36.50
2022-11-14T01:44:37.078Z,36.20
2022-11-14T01:47:04.474Z,37.88
2022-11-14T01:49:37.974Z,34.65
2022-11-14T01:52:19.131Z,34.53
2022-11-14T01:54:49.347Z,36.78
2022-11-14T01:57:20.324Z,39.80
2022-11-14T01:59:51.675Z,37.53
2022-11-14T02:02:25.355Z,40.28
2022-11-14T02:04:59.173Z,40.47
2022-11-14T02:07:29.599Z,40.25
2022-11-14T02:09:57.292Z,40.17
2022-11-14T02:12:24.258Z,42.85
2022-11-14T02:14:55.691Z,41.13
2022-11-14T02:17:31.230Z,42.00
2022-11-14T02:20:12.459Z,41.17
2022-11-14T02:22:41.020Z,42.85
2022-11-14T02:25:09.806Z,43.38
2022-11-14T02:27:39.286Z,43.15
2022-11-14T02:30:11.682Z,42.00
2022-11-14T02:33:09.606Z,41.00
2022-11-14T02:35:25.288Z,43.70
2022-11-14T02:37:52.105Z,43.33
2022-11-14T02:40:18.952Z,43.83
2022-11-14T02:42:45.806Z,43.47
2022-11-14T02:45:13.418Z,46.05
2022-11-14T02:47:40.181Z,46.47
2022-11-14T02:50:07.184Z,45.63
2022-11-14T02:52:33.952Z,46.88
2022-11-14T02:55:00.805Z,47.80
2022-11-14T02:57:27.642Z,48.70
2022-11-14T02:59:54.402Z,45.38
2022-11-14T03:02:21.150Z,47.70
2022-11-14T03:04:47.931Z,48.00
2022-11-14T03:07:14.830Z,48.38
2022-11-14T03:09:42.194Z,50.67
2022-11-14T03:12:09.527Z,49.13
2022-11-14T03:14:36.442Z,51.40
2022-11-14T03:17:03.458Z,51.97
2022-11-14T03:19:30.199Z,49.67
2022-11-14T03:21:56.983Z,51.33
2022-11-14T03:24:23.721Z,47.40
2022-11-14T03:26:50.578Z,52.70
2022-11-14T03:29:17.407Z,50.72
2022-11-14T03:31:44.224Z,48.30
2022-11-14T03:34:11.123Z,51.42
2022-11-14T03:36:38.366Z,51.17
2022-11-14T03:39:06.366Z,52.17
2022-11-14T03:41:33.460Z,53.10
2022-11-14T03:44:00.300Z,52.08
2022-11-14T03:46:27.498Z,53.67
2022-11-14T03:48:54.328Z,52.75
2022-11-14T03:51:21.383Z,51.55
2022-11-14T03:53:48.179Z,52.33
2022-11-14T03:56:15.022Z,49.42
2022-11-14T03:58:42.018Z,52.47
2022-11-14T04:01:08.831Z,56.97
2022-11-14T04:03:35.698Z,43.72
2022-11-14T04:06:03.258Z,52.85
2022-11-14T04:08:30.625Z,67.28
2022-11-14T04:10:57.694Z,54.88
2022-11-14T04:13:24.425Z,52.78
2022-11-14T04:16:00.489Z,51.55
2022-11-14T04:18:27.776Z,51.88
2022-11-14T04:20:54.859Z,52.03
2022-11-14T04:23:22.184Z,54.13
2022-11-14T04:25:48.963Z,51.63
2022-11-14T04:28:15.728Z,55.45
2022-11-14T04:30:42.535Z,51.88
2022-11-14T04:33:09.372Z,52.90
2022-11-14T04:35:36.106Z,50.58
2022-11-14T04:38:03.077Z,55.10
2022-11-14T04:40:29.962Z,48.50
2022-11-14T04:42:56.776Z,53.35
2022-11-14T04:45:23.616Z,50.67
2022-11-14T04:47:50.466Z,46.42
2022-11-14T04:50:17.479Z,48.08
2022-11-14T04:52:44.466Z,52.20
2022-11-14T04:55:11.471Z,41.90
2022-11-14T04:57:38.317Z,52.75
2022-11-14T05:00:05.860Z,53.05
2022-11-14T05:02:33.100Z,53.17
2022-11-14T05:04:59.916Z,51.22
2022-11-14T05:07:26.843Z,49.75
2022-11-14T05:09:54.053Z,50.70
2022-11-14T05:12:21.164Z,50.33
2022-11-14T05:14:48.898Z,50.00
2022-11-14T05:17:15.723Z,50.17
2022-11-14T05:19:43.507Z,50.38
2022-11-14T05:22:10.308Z,32.20
2022-11-14T05:24:37.117Z,47.05
2022-11-14T05:27:04.009Z,51.00
2022-11-14T05:29:30.927Z,48.85
2022-11-14T05:31:58.161Z,45.15
2022-11-14T05:34:25.758Z,49.03
2022-11-14T05:36:52.557Z,48.55
2022-11-14T05:39:19.322Z,47.60
2022-11-14T05:41:46.055Z,46.70
2022-11-14T05:44:12.866Z,47.15
2022-11-14T05:46:39.720Z,49.47
2022-11-14T05:49:06.502Z,49.15
2022-11-14T05:51:33.649Z,48.05
2022-11-14T05:54:00.438Z,48.03
2022-11-14T05:56:27.326Z,44.92
2022-11-14T05:58:54.124Z,45.92
2022-11-14T06:01:21.396Z,47.03
2022-11-14T06:03:49.328Z,44.75
2022-11-14T06:06:20.375Z,44.55
2022-11-14T06:08:47.587Z,43.50
2022-11-14T06:11:21.719Z,41.80
2022-11-14T06:13:48.917Z,43.90
2022-11-14T06:16:19.126Z,44.42
2022-11-14T06:18:46.352Z,41.95
2022-11-14T06:21:18.930Z,43.95
2022-11-14T06:23:49.920Z,45.22
2022-11-14T06:26:22.595Z,42.75
2022-11-14T06:28:50.868Z,45.80
2022-11-14T06:31:18.820Z,42.40
2022-11-14T06:33:45.855Z,44.67
2022-11-14T06:36:13.834Z,43.25
2022-11-14T06:38:42.034Z,44.20
2022-11-14T06:41:13.345Z,43.00
2022-11-14T06:43:42.202Z,44.95
2022-11-14T06:46:11.348Z,41.53
2022-11-14T06:48:38.987Z,43.13
2022-11-14T06:51:06.414Z,44.67
2022-11-14T06:53:34.999Z,44.25
2022-11-14T06:56:07.989Z,44.53
2022-11-14T06:58:41.458Z,42.80
2022-11-14T07:01:20.208Z,43.90
2022-11-14T07:03:47.882Z,43.22
2022-11-14T07:06:17.760Z,43.35
2022-11-14T07:08:44.892Z,44.40
2022-11-14T07:11:22.951Z,43.47
2022-11-14T07:13:54.927Z,40.20
2022-11-14T07:16:25.538Z,36.55
2022-11-14T07:18:52.507Z,43.07
2022-11-14T07:21:19.258Z,42.88
2022-11-14T07:23:46.011Z,42.40
2022-11-14T07:26:12.952Z,43.65
2022-11-14T07:28:42.539Z,43.53
2022-11-14T07:31:14.560Z,41.40
2022-11-14T07:33:42.455Z,43.25
2022-11-14T07:36:10.295Z,42.40
2022-11-14T07:38:38.026Z,36.35
2022-11-14T07:41:12.291Z,37.97
2022-11-14T07:43:39.623Z,43.50
2022-11-14T07:46:10.569Z,38.45
2022-11-14T07:48:38.004Z,40.70
2022-11-14T07:51:07.136Z,39.10
2022-11-14T07:53:38.504Z,41.25
2022-11-14T07:56:09.779Z,42.67
2022-11-14T07:58:38.079Z,40.50
2022-11-14T08:01:06.672Z,37.95
2022-11-14T08:03:34.625Z,37.33
2022-11-14T08:06:09.764Z,38.55
2022-11-14T08:08:36.678Z,34.95
2022-11-14T08:11:04.231Z,37.22
2022-11-14T08:13:33.407Z,34.63
2022-11-14T08:16:12.484Z,32.55
2022-11-14T08:18:40.239Z,31.75
2022-11-14T08:21:07.191Z,30.92
2022-11-14T08:23:34.028Z,29.38
2022-11-14T08:26:00.864Z,25.30
2022-11-14T08:28:28.114Z,26.10
2022-11-14T08:31:00.549Z,24.65
2022-11-14T08:33:27.345Z,25.25
2022-11-14T08:35:54.488Z,26.05
2022-11-14T08:38:21.360Z,23.40
2022-11-14T08:40:48.130Z,23.50
2022-11-14T08:43:14.955Z,23.55
2022-11-14T08:45:47.318Z,24.50
2022-11-14T08:48:14.105Z,23.70
2022-11-14T08:50:40.876Z,23.67
2022-11-14T08:53:07.732Z,21.88
2022-11-14T08:55:37.271Z,22.08
2022-11-14T08:58:04.051Z,22.98
2022-11-14T09:00:30.852Z,22.20
2022-11-14T09:02:57.684Z,23.15
2022-11-14T09:05:24.497Z,22.00
2022-11-14T09:07:51.264Z,21.52
2022-11-14T09:10:18.272Z,22.88
2022-11-14T09:12:45.069Z,20.23
2022-11-14T09:15:11.844Z,20.90
2022-11-14T09:17:38.614Z,17.27
2022-11-14T09:20:06.422Z,21.40
2022-11-14T09:22:33.173Z,21.67
2022-11-14T09:24:59.915Z,20.08
2022-11-14T09:27:27.448Z,18.60
2022-11-14T09:29:54.189Z,18.25
2022-11-14T09:32:20.945Z,16.92
2022-11-14T09:34:48.122Z,16.65
2022-11-14T09:37:15.001Z,16.98
2022-11-14T09:39:42.045Z,16.10
2022-11-14T09:42:37.035Z,24.50
2022-11-14T09:45:11.167Z,15.68
2022-11-14T09:47:44.394Z,15.57
2022-11-14T09:50:13.660Z,15.65
2022-11-14T09:52:46.291Z,15.45
2022-11-14T09:55:31.002Z,16.02
2022-11-14T09:58:02.784Z,14.93
2022-11-14T10:00:55.052Z,14.60
2022-11-14T10:03:54.780Z,14.68
2022-11-14T10:06:22.863Z,15.35
2022-11-14T10:09:22.209Z,15.57
2022-11-14T10:12:20.588Z,14.93
2022-11-14T10:15:21.764Z,12.98
2022-11-14T10:17:56.327Z,13.77
2022-11-14T10:20:44.563Z,13.68
2022-11-14T10:23:35.533Z,13.98
2022-11-14T10:26:20.483Z,13.85
2022-11-14T10:28:59.262Z,14.30
2022-11-14T10:31:45.736Z,12.82
2022-11-14T10:34:34.502Z,14.07
2022-11-14T10:37:20.263Z,12.55
2022-11-14T10:40:20.763Z,14.05
2022-11-14T10:42:51.773Z,12.77
2022-11-14T10:45:34.932Z,13.98
2022-11-14T10:48:14.106Z,13.93
2022-11-14T10:50:57.157Z,13.52
2022-11-14T10:53:52.049Z,17.90
2022-11-14T10:56:18.981Z,16.98
2022-11-14T10:58:48.795Z,13.23
2022-11-14T11:01:35.567Z,13.65
2022-11-14T11:04:27.211Z,13.85
2022-11-14T11:09:46.956Z,13.93
2022-11-14T11:12:22.923Z,13.63
2022-11-14T11:15:11.056Z,13.00
2022-11-14T11:17:42.948Z,13.50
2022-11-14T11:20:42.163Z,12.93
2022-11-14T11:23:18.210Z,11.88
2022-11-14T11:25:45.005Z,12.02
2022-11-14T11:28:22.349Z,14.10
2022-11-14T11:31:09.864Z,13.25
2022-11-14T11:33:39.429Z,12.90
2022-11-14T11:36:16.865Z,13.20
2022-11-14T11:38:45.236Z,14.52
2022-11-14T11:42:06.173Z,14.25
2022-11-14T11:44:19.172Z,13.82
2022-11-14T11:47:04.404Z,12.57
2022-11-14T11:49:36.833Z,13.77
2022-11-14T11:52:11.560Z,12.73
2022-11-14T11:55:17.804Z,12.57
2022-11-14T11:57:55.049Z,13.18
2022-11-14T12:00:22.647Z,14.13
2022-11-14T12:02:52.335Z,13.52
2022-11-14T12:05:35.103Z,14.95
2022-11-14T12:08:06.522Z,14.85
2022-11-14T12:13:15.044Z,15.07
2022-11-14T12:15:59.673Z,14.38
2022-11-14T12:18:51.292Z,14.27
2022-11-14T12:24:02.952Z,14.40
2022-11-14T12:27:12.152Z,13.98
2022-11-14T12:30:09.312Z,15.02
2022-11-14T12:32:50.866Z,14.82
2022-11-14T12:40:38.003Z,9.73
2022-11-14T12:43:27.911Z,15.60
2022-11-14T12:45:58.601Z,16.30
2022-11-14T12:48:31.336Z,15.63
2022-11-14T12:50:59.880Z,15.93
2022-11-14T12:53:38.735Z,17.42
2022-11-14T12:56:22.596Z,16.77
2022-11-14T12:59:26.732Z,17.38
2022-11-14T13:01:53.551Z,20.23
2022-11-14T13:04:29.731Z,21.92
2022-11-14T13:07:32.980Z,19.17
2022-11-14T13:10:27.976Z,23.15
2022-11-14T13:13:29.319Z,24.10
2022-11-14T13:16:19.476Z,24.63
2022-11-14T13:19:32.079Z,19.00
2022-11-14T13:22:14.580Z,23.55
2022-11-14T13:24:59.357Z,22.60
2022-11-14T13:27:45.140Z,23.60
2022-11-14T13:30:14.133Z,23.05
2022-11-14T13:32:40.860Z,24.20
2022-11-14T13:35:37.141Z,22.00
2022-11-14T13:38:31.249Z,22.13
2022-11-14T13:41:13.178Z,22.65
2022-11-14T13:44:01.778Z,23.80
2022-11-14T13:46:44.084Z,21.67
2022-11-14T13:49:32.820Z,21.52
2022-11-14T13:52:08.164Z,22.60
2022-11-14T13:54:35.102Z,18.58
2022-11-14T13:57:12.760Z,20.05
2022-11-14T14:00:01.544Z,23.38
2022-11-14T14:02:52.748Z,21.25
2022-11-14T14:05:20.844Z,23.80
2022-11-14T14:08:10.646Z,26.90
2022-11-14T14:10:46.351Z,25.08
2022-11-14T14:14:01.108Z,23.20
2022-11-14T14:16:55.497Z,24.50
2022-11-14T14:19:47.949Z,24.80
2022-11-14T14:22:41.024Z,24.42
2022-11-14T14:25:47.944Z,25.38
2022-11-14T14:28:30.878Z,24.20
2022-11-14T14:31:10.498Z,25.73
2022-11-14T14:33:47.523Z,25.25
2022-11-14T14:36:19.949Z,18.88
2022-11-14T14:38:47.815Z,24.95
2022-11-14T14:41:20.300Z,28.30
2022-11-14T14:43:54.350Z,28.20
2022-11-14T14:46:31.600Z,30.70
2022-11-14T14:49:01.887Z,30.88
2022-11-14T14:51:38.924Z,28.20
2022-11-14T14:54:07.875Z,32.58
2022-11-14T14:56:34.622Z,61.25
2022-11-14T14:59:16.638Z,36.53
2022-11-14T15:01:43.858Z,61.70
2022-11-14T15:04:15.728Z,31.67
2022-11-14T15:06:46.620Z,31.00
2022-11-14T15:09:22.781Z,30.05
2022-11-14T15:11:58.403Z,32.78
2022-11-14T15:14:29.323Z,30.92
2022-11-14T15:17:00.047Z,35.20
2022-11-14T15:19:35.790Z,31.90
2022-11-14T15:22:20.108Z,30.77
2022-11-14T15:25:11.803Z,31.50
2022-11-14T15:30:23.119Z,29.35
2022-11-14T15:32:55.701Z,30.02
2022-11-14T15:35:32.450Z,29.27
2022-11-14T15:38:41.917Z,32.78
2022-11-14T15:41:23.297Z,30.23
2022-11-14T15:43:55.277Z,31.15
2022-11-14T15:46:50.948Z,30.08
2022-11-14T15:49:27.767Z,30.42
2022-11-14T15:52:03.486Z,30.63
2022-11-14T15:54:35.461Z,30.10
2022-11-14T15:57:12.773Z,28.55
2022-11-14T15:59:40.222Z,29.83
2022-11-14T16:02:16.467Z,28.42
2022-11-14T16:04:47.617Z,30.23
2022-11-14T16:09:46.078Z,31.05
2022-11-14T16:12:13.424Z,31.10
2022-11-14T16:14:40.713Z,32.00
2022-11-14T16:17:16.530Z,31.77
2022-11-14T16:19:43.911Z,33.40
2022-11-14T16:22:15.308Z,32.40
2022-11-14T16:24:43.629Z,32.55
2022-11-14T16:27:10.579Z,30.63
2022-11-14T16:29:46.597Z,32.60
2022-11-14T16:32:13.474Z,35.22
2022-11-14T16:34:40.660Z,35.40
2022-11-14T16:37:14.361Z,34.17
2022-11-14T16:39:41.491Z,33.22
2022-11-14T16:42:11.213Z,32.75
2022-11-14T16:44:46.350Z,33.15
2022-11-14T16:47:18.553Z,32.45
2022-11-14T16:49:45.372Z,33.63
2022-11-14T16:52:13.160Z,33.50
2022-11-14T16:54:40.001Z,33.85
2022-11-14T16:57:06.817Z,34.35
2022-11-14T16:59:33.626Z,34.35
2022-11-14T17:02:03.088Z,33.15
2022-11-14T17:04:29.983Z,31.63
2022-11-14T17:06:56.923Z,34.40
2022-11-14T17:09:23.769Z,37.53
2022-11-14T17:11:50.599Z,42.78
2022-11-14T17:14:20.686Z,38.72
2022-11-14T17:16:47.492Z,35.78
2022-11-14T17:19:14.409Z,40.45
2022-11-14T17:21:41.531Z,42.40
2022-11-14T17:24:08.430Z,41.80
2022-11-14T17:26:36.634Z,40.60
2022-11-14T17:29:04.389Z,39.00
2022-11-14T17:31:37.428Z,37.70
2022-11-14T17:34:12.330Z,34.50
2022-11-14T17:36:48.017Z,32.83
2022-11-14T17:39:15.202Z,35.83
2022-11-14T17:41:41.990Z,35.45
2022-11-14T17:44:09.937Z,38.40
2022-11-14T17:46:40.011Z,35.22
2022-11-14T17:49:06.852Z,34.50
2022-11-14T17:51:36.840Z,35.50
2022-11-14T17:54:03.797Z,38.42
2022-11-14T17:56:30.843Z,37.00
2022-11-14T17:59:02.998Z,35.35
2022-11-14T18:01:31.612Z,32.17
2022-11-14T18:04:03.200Z,33.65
2022-11-14T18:06:42.582Z,33.85
2022-11-14T18:09:32.383Z,35.03
2022-11-14T18:12:06.911Z,34.08
2022-11-14T18:14:33.796Z,33.05
2022-11-14T18:17:16.034Z,34.05
2022-11-14T18:19:45.853Z,35.00
2022-11-14T18:22:12.756Z,31.00
2022-11-14T18:24:43.445Z,27.45
2022-11-14T18:27:10.226Z,33.22
2022-11-14T18:29:37.389Z,35.40
2022-11-14T18:32:04.318Z,35.30
2022-11-14T18:34:31.144Z,33.63
2022-11-14T18:36:58.029Z,34.97
2022-11-14T18:39:26.120Z,37.42
2022-11-14T18:41:52.946Z,34.80
2022-11-14T18:44:21.192Z,37.78
2022-11-14T18:46:48.089Z,34.15
2022-11-14T18:49:14.954Z,36.30
2022-11-14T18:51:42.318Z,33.20
2022-11-14T18:54:14.391Z,33.60
2022-11-14T18:56:41.385Z,34.72
2022-11-14T18:59:08.635Z,37.45
2022-11-14T19:01:36.055Z,61.85
2022-11-14T19:04:08.009Z,38.28
2022-11-14T19:06:37.400Z,33.83
2022-11-14T19:09:11.317Z,33.03
2022-11-14T19:11:57.517Z,32.58
2022-11-14T19:14:24.539Z,31.65
2022-11-14T19:16:53.861Z,29.92
2022-11-14T19:19:20.822Z,27.95
2022-11-14T19:21:51.088Z,30.73
2022-11-14T19:24:18.484Z,28.35
2022-11-14T19:26:47.281Z,29.55
2022-11-14T19:29:14.551Z,30.55
2022-11-14T19:31:50.540Z,30.77
2022-11-14T19:34:26.060Z,28.55
2022-11-14T19:36:59.756Z,27.88
2022-11-14T19:39:27.357Z,30.80
2022-11-14T19:41:54.126Z,29.38
2022-11-14T19:44:20.887Z,27.55
2022-11-14T19:46:48.464Z,27.48
2022-11-14T19:49:15.708Z,27.77
2022-11-14T19:51:42.945Z,26.23
2022-11-14T19:54:10.914Z,26.90
2022-11-14T19:56:43.880Z,27.27
2022-11-14T19:59:47.356Z,25.80
2022-11-14T20:02:30.311Z,24.63
2022-11-14T20:04:59.898Z,24.80
2022-11-14T20:07:46.602Z,24.58
2022-11-14T20:10:13.913Z,23.85
2022-11-14T20:12:40.787Z,23.75
2022-11-14T20:15:08.199Z,24.15
2022-11-14T20:17:43.165Z,23.25
2022-11-14T20:20:16.135Z,22.25
2022-11-14T20:22:45.233Z,21.25
2022-11-14T20:25:15.753Z,22.30
2022-11-14T20:27:42.568Z,25.43
2022-11-14T20:30:09.707Z,23.70
2022-11-14T20:32:36.870Z,20.20
2022-11-14T20:35:06.914Z,22.55
2022-11-14T20:37:36.064Z,23.90
2022-11-14T20:40:03.092Z,19.48
2022-11-14T20:42:32.643Z,20.10
2022-11-14T20:44:59.440Z,22.52
2022-11-14T20:47:27.619Z,20.00
2022-11-14T20:49:54.523Z,23.17
2022-11-14T20:52:21.419Z,22.23
2022-11-14T20:54:50.193Z,24.23
2022-11-14T20:57:21.895Z,25.67
2022-11-14T20:59:49.203Z,24.15
2022-11-14T21:02:16.069Z,21.80
2022-11-14T21:04:44.942Z,21.55
2022-11-14T21:07:11.874Z,22.33
2022-11-14T21:09:39.438Z,22.23
2022-11-14T21:12:06.266Z,21.98
2022-11-14T21:14:33.014Z,24.08
2022-11-14T21:17:03.770Z,24.88
2022-11-14T21:19:39.578Z,26.08
2022-11-14T21:22:15.374Z,24.73
2022-11-14T21:24:45.475Z,27.42
2022-11-14T21:27:13.250Z,22.45
2022-11-14T21:30:08.051Z,28.75
2022-11-14T21:32:36.260Z,26.25
2022-11-14T21:35:27.161Z,25.73
2022-11-14T21:37:53.944Z,26.83
2022-11-14T21:40:23.899Z,28.27
2022-11-14T21:42:50.713Z,27.80
2022-11-14T21:45:17.546Z,28.15
2022-11-14T21:47:44.419Z,16.65
2022-11-14T21:50:11.239Z,26.92
2022-11-14T21:52:38.019Z,27.08
2022-11-14T21:55:07.298Z,26.75
2022-11-14T21:57:34.059Z,27.45
2022-11-14T22:00:00.820Z,27.75
2022-11-14T22:02:46.413Z,27.50
2022-11-14T22:05:13.434Z,27.58
2022-11-14T22:07:42.189Z,27.75
2022-11-14T22:10:09.267Z,25.55
2022-11-14T22:12:42.171Z,27.02
2022-11-14T22:15:09.344Z,26.98
2022-11-14T22:17:36.106Z,28.35
2022-11-14T22:20:06.333Z,27.92
2022-11-14T22:22:35.909Z,27.30
2022-11-14T22:25:05.691Z,26.08
2022-11-14T22:27:32.802Z,27.48
2022-11-14T22:29:59.542Z,26.23
2022-11-14T22:32:26.252Z,29.20
2022-11-14T22:34:52.964Z,26.00
2022-11-14T22:37:19.778Z,27.08
2022-11-14T22:39:46.871Z,26.73
2022-11-14T22:42:13.697Z,27.45
2022-11-14T22:44:40.455Z,29.70
2022-11-14T22:47:07.242Z,28.63
2022-11-14T22:49:34.116Z,29.08
2022-11-14T22:52:00.946Z,28.80
2022-11-14T22:54:28.048Z,28.17
2022-11-14T22:57:15.103Z,29.98
2022-11-14T22:59:42.099Z,29.70
2022-11-14T23:02:12.043Z,27.17
2022-11-14T23:04:54.951Z,28.33
2022-11-14T23:07:27.038Z,30.70
2022-11-14T23:09:53.832Z,34.95
2022-11-14T23:12:26.861Z,28.52
2022-11-14T23:14:57.334Z,28.45
2022-11-14T23:17:24.537Z,29.35
2022-11-14T23:19:51.343Z,30.02
2022-11-14T23:22:18.037Z,29.23
2022-11-14T23:24:44.797Z,29.23
2022-11-14T23:27:11.705Z,29.63
2022-11-14T23:29:38.893Z,29.50
2022-11-14T23:32:06.007Z,27.95
2022-11-14T23:34:32.790Z,27.38
2022-11-14T23:36:59.526Z,29.80
2022-11-14T23:39:26.243Z,30.50
2022-11-14T23:41:53.002Z,28.20
2022-11-14T23:44:19.773Z,28.00
2022-11-14T23:46:46.536Z,28.42
2022-11-14T23:49:13.387Z,28.83
2022-11-14T23:51:42.888Z,30.05
2022-11-14T23:54:09.664Z,29.23
2022-11-14T23:56:36.484Z,31.05
2022-11-14T23:59:03.292Z,29.95
